Date,TemperatureHighF,TemperatureAvgF,TemperatureLowF,DewpointHighF,DewpointAvgF,DewpointLowF,HumidityHigh,HumidityAvg,HumidityLow,PressureMaxIn,PressureMinIn,WindSpeedMaxMPH,WindSpeedAvgMPH,GustSpeedMaxMPH,PrecipitationSumIn
2012-4-11,58,47,37,30,25,21,60,44,34,0.00,40.00,14,6,18,0.00
2012-4-12,65,48,31,32,27,23,73,48,28,0.00,40.00,14,6,23,0.00
2012-4-13,60,50,38,45,36,27,76,59,36,0.00,40.00,32,19,39,0.00
2012-4-14,68,57,49,59,52,-100,97,85,73,0.00,40.00,21,10,29,0.00
2012-4-15,73,66,60,64,60,56,97,81,66,0.00,40.00,38,21,52,0.00
2012-4-16,65,52,41,61,44,37,89,74,55,0.00,40.00,42,10,55,0.00
2012-4-17,62,49,37,38,35,32,94,60,34,0.00,40.00,10,4,17,0.00
2012-4-18,73,68,60,52,47,45,73,47,39,0.00,40.00,26,15,38,0.00
2012-4-19,74,59,48,56,50,44,89,72,43,0.00,40.00,23,11,32,0.00
2012-4-20,50,44,38,49,40,34,98,87,73,0.00,40.00,27,16,35,0.00
2012-4-21,55,43,32,35,29,-100,95,62,35,0.00,40.00,15,7,24,0.00
2012-4-22,53,46,38,34,25,20,73,46,31,0.00,40.00,24,12,34,0.00
2012-4-23,60,48,33,30,27,22,75,47,30,0.00,40.00,24,13,34,0.00
2012-4-24,65,53,43,38,32,27,64,46,31,0.00,40.00,14,8,18,0.00
2012-4-25,74,60,45,50,43,30,85,56,36,0.00,40.00,26,16,35,0.00
2012-4-26,62,51,35,50,40,26,97,69,34,0.00,40.00,26,15,36,0.00
2012-4-27,58,45,32,32,23,12,92,49,20,0.00,40.00,26,15,37,0.00
2012-4-28,51,44,42,45,38,-100,97,82,48,0.00,40.00,32,20,40,0.00
2012-4-29,60,48,40,50,42,38,97,83,50,0.00,40.00,26,16,32,0.00
2012-4-30,60,54,51,56,52,48,97,94,85,0.00,40.00,14,8,19,0.00
2012-5-1,61,53,43,60,52,42,97,95,86,0.00,40.00,24,11,29,0.00
2012-5-2,77,64,57,64,60,56,97,88,57,0.00,40.00,30,12,39,0.00
2012-5-3,84,73,64,69,66,62,95,78,54,0.00,40.00,20,12,31,0.00
2012-5-4,83,69,57,65,61,56,97,77,45,0.00,40.00,33,10,42,0.00
2012-5-5,68,61,56,63,58,-100,97,93,82,0.00,40.00,21,12,31,0.00
2012-5-6,73,63,55,66,60,54,97,92,78,0.00,40.00,24,14,29,0.00
2012-5-7,66,60,57,62,58,55,97,92,69,0.00,40.00,21,10,37,0.00
2012-5-8,68,63,55,56,45,41,93,54,38,0.00,40.00,24,15,32,0.00
2012-5-9,63,53,46,48,44,36,94,73,38,0.00,40.00,19,10,24,0.00
2012-5-10,73,58,43,46,38,29,97,56,20,0.00,40.00,14,6,16,0.00
2012-5-11,78,62,44,47,42,36,77,50,33,0.00,40.00,21,13,28,0.00
2012-5-12,66,59,51,56,51,-100,93,79,50,0.00,40.00,16,10,20,0.00
2012-5-13,75,60,47,48,37,29,83,48,22,0.00,40.00,19,7,26,0.00
2012-5-14,81,65,45,39,36,33,69,38,20,0.00,40.00,13,4,18,0.00
2012-5-15,86,75,56,56,47,39,66,39,25,0.00,40.00,23,14,39,0.00
2012-5-16,72,60,46,53,40,33,84,52,29,0.00,40.00,17,11,26,0.00
2012-5-17,79,61,43,45,39,33,72,46,28,0.00,40.00,19,11,26,0.00
2012-5-18,87,68,50,51,44,37,66,44,23,0.00,40.00,21,13,30,0.00
2012-5-19,90,74,59,63,54,-100,83,52,32,0.00,40.00,18,10,29,0.00
2012-5-20,88,74,62,69,60,53,93,63,42,0.00,40.00,28,14,36,0.00
2012-5-21,72,61,50,53,47,41,91,63,36,0.00,40.00,21,13,30,0.00
2012-5-22,79,62,47,46,42,39,87,53,26,0.00,40.00,16,5,21,0.00
2012-5-23,83,66,49,48,44,41,81,49,25,0.00,40.00,24,13,30,0.00
2012-5-24,90,75,58,61,55,43,74,50,36,0.00,40.00,42,20,54,0.00
2012-5-25,86,72,59,65,53,45,93,55,28,0.00,40.00,21,10,33,0.00
2012-5-26,92,74,63,66,55,45,76,52,42,0.00,40.00,32,17,42,0.00
2012-5-27,94,81,67,67,62,55,91,56,28,0.00,40.00,23,12,32,0.00
2012-5-28,89,80,71,67,64,58,81,59,49,0.00,40.00,27,15,39,0.00
2012-5-29,81,72,59,67,51,40,90,52,28,0.00,40.00,27,14,40,0.00
2012-5-30,69,61,52,49,45,42,83,57,41,0.00,40.00,23,12,33,0.00
2012-5-31,53,48,46,49,46,43,99,93,83,0.00,40.00,21,14,29,0.00
2012-6-1,68,56,47,47,43,37,94,67,35,0.00,40.00,21,13,32,0.00
2012-6-2,71,61,51,55,49,-100,89,67,47,0.00,40.00,19,11,26,0.00
2012-6-3,81,67,53,60,51,45,95,63,30,0.00,40.00,16,7,26,0.00
2012-6-4,81,68,59,61,54,45,95,65,33,0.00,40.00,16,6,20,0.00
2012-6-5,76,66,54,55,49,43,82,56,40,0.00,40.00,17,8,24,0.00
2012-6-6,80,66,52,52,48,45,89,57,31,0.00,40.00,11,6,20,0.00
2012-6-7,84,69,50,50,46,42,89,50,25,0.00,40.00,10,3,17,0.00
2012-6-8,86,73,56,56,52,47,74,50,32,0.00,40.00,13,6,19,0.00
2012-6-9,87,76,63,58,54,-100,78,51,34,0.00,40.00,17,9,26,0.00
2012-6-10,89,77,63,62,59,55,87,56,35,0.00,40.00,32,13,42,0.00
2012-6-11,87,76,65,70,64,56,92,69,42,0.00,40.00,20,10,29,0.00
2012-6-12,74,66,54,56,50,45,80,56,42,0.00,40.00,18,11,26,0.00
2012-6-13,78,63,47,54,46,39,97,58,31,0.00,40.00,18,8,22,0.00
2012-6-14,86,71,54,56,52,43,90,53,34,0.00,40.00,22,13,28,0.00
2012-6-15,92,76,57,61,55,49,83,52,31,0.00,40.00,22,10,32,0.00
2012-6-16,90,76,66,70,61,-100,97,62,51,0.00,40.00,19,11,32,0.00
2012-6-17,84,74,66,67,62,54,96,71,37,0.00,40.00,13,7,18,0.00
2012-6-18,89,79,67,70,66,63,95,68,44,0.00,40.00,29,15,41,0.00
2012-6-19,90,81,70,70,68,65,90,65,47,0.00,40.00,24,12,34,0.00
2012-6-20,91,83,71,69,66,62,73,57,45,0.00,40.00,23,13,34,0.00
2012-6-21,85,75,64,68,62,54,88,65,39,0.00,40.00,14,9,23,0.00
2012-6-22,85,72,58,58,55,51,93,60,33,0.00,40.00,12,5,19,0.00
2012-6-23,84,72,55,64,57,53,92,62,35,0.00,40.00,8,2,14,0.00
2012-6-24,89,76,63,69,63,58,93,66,45,0.00,40.00,16,5,21,0.00
2012-6-25,78,69,55,62,49,39,81,51,36,0.00,40.00,17,11,27,0.00
2012-6-26,83,67,50,56,51,42,96,61,33,0.00,40.00,14,7,19,0.00
2012-6-27,89,73,56,63,56,52,89,59,34,0.00,40.00,21,11,32,0.00
2012-6-28,97,84,70,82,73,63,90,69,55,0.00,40.00,15,8,22,0.00
2012-6-29,88,77,66,78,66,56,97,71,47,0.00,40.00,29,7,44,0.00
2012-6-30,90,78,66,76,69,65,96,77,47,0.00,40.00,11,4,17,0.00
2012-7-1,89,77,65,76,70,65,98,81,52,0.00,40.00,19,4,24,0.00
2012-7-2,96,82,70,76,72,68,96,75,45,0.00,40.00,11,4,19,0.00
2012-7-3,93,82,71,76,71,64,88,69,52,0.00,40.00,13,7,20,0.00
2012-7-4,96,85,74,77,74,72,93,73,50,0.00,40.00,10,6,14,0.00
2012-7-5,96,85,74,82,74,69,92,71,50,0.00,40.00,9,6,14,0.00
2012-7-6,99,88,77,80,76,73,92,70,45,0.00,40.00,8,4,14,0.00
2012-7-7,99,85,72,78,72,57,91,68,42,0.00,40.00,24,6,32,0.00
2012-7-8,85,76,68,65,60,56,85,60,37,0.00,40.00,16,8,24,0.00
2012-7-9,92,76,60,67,62,58,95,63,37,0.00,40.00,10,4,18,0.00
2012-7-10,82,72,62,66,60,51,94,68,45,0.00,40.00,13,7,19,0.00
2012-7-11,90,73,55,66,55,49,97,60,28,0.00,40.00,11,4,18,0.00
2012-7-12,90,75,62,71,63,59,94,69,41,0.00,40.00,11,6,16,0.00
2012-7-13,89,76,64,68,65,61,92,71,47,0.00,40.00,15,5,20,0.00
2012-7-14,89,76,68,70,68,64,98,77,45,0.00,40.00,19,4,40,0.00
2012-7-15,92,80,68,76,69,66,95,73,45,0.00,40.00,9,4,14,0.00
2012-7-16,93,83,71,73,70,66,95,68,42,0.00,40.00,12,6,19,0.00
2012-7-17,96,85,74,74,71,69,91,66,43,0.00,40.00,13,6,19,0.00
2012-7-18,100,85,71,75,72,68,95,68,40,0.00,40.00,21,5,43,0.00
2012-7-19,86,76,69,73,70,65,97,83,56,0.00,40.00,19,11,26,0.00
2012-7-20,83,72,63,66,62,-100,96,74,43,0.00,40.00,14,2,21,0.00
2012-7-21,86,74,60,73,64,57,93,72,48,0.00,40.00,7,3,13,0.00
2012-7-22,89,76,65,71,67,64,96,76,47,0.00,40.00,11,4,15,0.00
2012-7-23,94,83,76,78,69,61,89,64,51,0.00,40.00,13,7,20,0.00
2012-7-24,87,78,71,77,70,61,93,78,56,0.00,40.00,29,6,42,0.00
2012-7-25,98,82,66,74,67,61,95,65,36,0.00,40.00,18,11,31,0.00
2012-7-26,89,77,68,73,69,63,97,78,50,0.00,40.00,25,8,37,0.00
2012-7-27,83,73,65,67,62,57,97,71,44,0.00,40.00,16,8,24,0.00
2012-7-28,88,72,61,66,61,56,96,72,36,0.00,40.00,9,4,16,0.00
2012-7-29,86,72,59,66,61,56,95,71,44,0.00,40.00,12,6,17,0.00
2012-7-30,92,79,65,69,65,61,90,65,41,0.00,40.00,9,5,14,0.00
2012-7-31,88,78,67,72,67,62,96,73,42,0.00,40.00,12,6,18,0.00
2012-8-1,92,77,62,68,63,59,97,66,36,0.00,40.00,8,3,11,0.00
2012-8-2,92,78,62,68,64,60,94,66,41,0.00,40.00,9,5,16,0.00
2012-8-3,94,79,65,70,66,63,96,69,38,0.00,40.00,11,6,21,0.00
2012-8-4,91,74,66,74,69,65,96,85,55,0.00,40.00,26,7,42,0.00
2012-8-5,83,73,59,68,60,52,96,68,38,0.00,40.00,15,7,23,0.00
2012-8-6,84,69,54,60,54,51,95,65,32,0.00,40.00,7,2,12,0.00
2012-8-7,92,75,57,72,61,55,95,66,37,0.00,40.00,12,5,19,0.00
2012-8-8,80,71,62,73,66,61,96,85,68,0.00,40.00,12,4,19,0.00
2012-8-9,82,68,62,66,63,60,96,85,54,0.00,40.00,19,6,26,0.00
2012-8-10,76,66,56,61,54,44,97,69,37,0.00,40.00,19,12,29,0.00
2012-8-11,79,64,50,57,50,46,94,65,33,0.00,40.00,16,6,24,0.00
2012-8-12,75,63,52,63,55,50,95,76,44,0.00,40.00,8,3,12,0.00
2012-8-13,67,63,56,62,60,55,97,93,80,0.00,40.00,10,5,14,0.00
2012-8-14,84,69,56,64,58,53,97,72,36,0.00,40.00,11,4,19,0.00
2012-8-15,85,72,63,63,60,57,89,70,41,0.00,40.00,13,5,19,0.00
2012-8-16,77,69,59,68,61,52,95,79,48,0.00,40.00,18,9,26,0.00
2012-8-17,76,63,52,55,50,45,96,67,34,0.00,40.00,13,6,19,0.00
2012-8-18,80,63,48,56,50,45,97,68,33,0.00,40.00,9,3,13,0.00
2012-8-19,80,66,54,57,51,43,93,64,27,0.00,40.00,13,5,21,0.00
2012-8-20,80,66,52,56,52,45,96,66,31,0.00,40.00,11,4,16,0.00
2012-8-21,81,65,49,56,51,46,97,65,30,0.00,40.00,9,3,12,0.00
2012-8-22,86,68,51,58,52,49,94,64,30,0.00,40.00,10,5,16,0.00
2012-8-23,92,74,60,64,58,55,84,63,31,0.00,40.00,19,8,26,0.00
2012-8-24,92,76,61,66,60,57,91,64,31,0.00,40.00,11,6,16,0.00
2012-8-25,90,75,62,64,61,57,94,66,36,0.00,40.00,17,8,26,0.00
2012-8-26,72,69,65,70,67,61,96,93,80,0.00,40.00,14,6,21,0.00
2012-8-27,87,75,65,69,61,52,96,68,31,0.00,40.00,17,7,21,0.00
2012-8-28,89,73,57,67,58,54,94,65,34,0.00,40.00,11,3,17,0.00
2012-8-29,85,72,61,68,62,58,96,74,43,0.00,40.00,14,6,17,0.00
2012-8-30,90,75,62,65,61,58,96,68,35,0.00,40.00,15,7,22,0.00
2012-8-31,90,78,69,74,67,59,95,71,52,0.00,40.00,14,7,19,0.00
2012-9-1,74,70,68,70,65,53,95,84,52,0.00,40.00,17,13,26,0.00
2012-9-2,84,76,70,72,71,68,96,86,64,0.00,40.00,18,11,26,0.00
2012-9-3,92,78,65,73,68,63,97,76,43,0.00,40.00,10,4,16,0.00
2012-9-4,93,80,63,75,70,60,97,75,39,0.00,40.00,35,3,54,0.00
2012-9-5,90,72,62,64,61,58,97,72,40,0.00,40.00,28,10,42,0.00
2012-9-11,83,73,54,56,54,51,90,54,38,0.00,40.00,22,13,29,0.00
2012-9-12,86,70,54,60,56,51,96,66,33,0.00,40.00,19,8,24,0.00
2012-9-13,67,59,51,59,52,46,97,80,61,0.00,40.00,21,10,28,0.00
2012-9-14,75,60,46,54,44,35,97,66,24,0.00,40.00,14,4,19,0.00
2012-9-15,80,64,48,50,46,41,92,57,27,0.00,40.00,10,4,14,0.00
2012-9-16,75,62,46,52,47,43,95,63,32,0.00,40.00,14,5,21,0.00
2012-9-17,78,63,54,61,56,49,97,83,48,0.00,40.00,17,7,26,0.00
2012-9-18,63,52,41,50,38,27,97,67,28,0.00,40.00,20,10,27,0.00
2012-9-19,73,56,37,46,39,35,94,60,30,0.00,40.00,32,11,39,0.00
2012-9-20,71,59,44,51,40,31,93,54,25,0.00,40.00,20,7,29,0.00
2012-9-21,60,50,42,52,46,39,98,84,55,0.00,40.00,14,5,23,0.00
2012-9-22,60,49,43,48,38,30,98,69,39,0.00,40.00,26,12,39,0.00
2012-9-23,61,48,36,41,33,24,97,62,26,0.00,40.00,15,5,25,0.00
2012-9-24,71,52,33,39,33,30,93,54,24,0.00,40.00,19,8,27,0.00
2012-9-25,77,62,47,62,52,39,96,71,45,0.00,40.00,14,6,21,0.00
2012-9-26,76,61,50,61,51,43,97,75,34,0.00,40.00,13,6,17,0.00
2012-9-27,66,53,42,46,42,40,95,70,42,0.00,40.00,14,6,22,0.00
2012-9-28,70,51,40,45,41,37,97,75,34,0.00,40.00,18,6,23,0.00
2012-9-29,80,58,43,47,41,35,96,63,21,0.00,40.00,14,6,22,0.00
2012-9-30,71,56,43,51,42,37,97,65,31,0.00,40.00,15,8,25,0.00
2012-10-1,69,55,42,53,42,37,97,67,32,0.00,40.00,11,5,16,0.00
2012-10-2,73,57,45,51,44,38,95,65,31,0.00,40.00,15,7,24,0.00
2012-10-3,70,60,53,56,52,47,93,78,54,0.00,40.00,10,4,13,0.00
2012-10-4,73,57,46,56,50,39,96,81,48,0.00,40.00,19,10,31,0.00
2012-10-5,48,43,38,41,31,22,82,62,40,0.00,40.00,19,11,28,0.00
2012-10-6,48,40,31,29,26,23,81,60,44,0.00,40.00,19,12,25,0.00
2012-10-7,51,41,33,30,25,19,73,54,31,0.00,40.00,14,6,21,0.00
2012-10-8,59,43,30,33,28,22,79,58,32,0.00,40.00,24,10,32,0.00
2012-10-9,66,50,41,43,38,32,97,66,39,0.00,40.00,27,13,37,0.00
2012-10-10,52,41,33,41,30,24,97,69,37,0.00,40.00,21,11,32,0.00
2012-10-11,67,49,33,40,34,27,85,58,31,0.00,40.00,21,13,31,0.00
2012-10-12,58,45,32,42,31,26,94,61,33,0.00,40.00,18,10,26,0.00
2012-10-13,65,53,42,63,50,34,97,90,65,0.00,40.00,19,12,28,0.00
2012-10-14,68,59,46,63,57,43,97,93,78,0.00,40.00,34,16,44,0.00
2012-10-15,61,49,40,43,38,34,93,70,38,0.00,40.00,17,10,24,0.00
2012-10-16,71,55,38,53,45,37,96,72,45,0.00,40.00,35,16,43,0.00
2012-10-17,66,58,50,57,52,47,96,83,61,0.00,40.00,36,12,48,0.00
2012-10-18,52,45,42,48,40,34,96,84,52,0.00,40.00,23,15,33,0.00
2012-10-19,51,45,40,45,42,38,97,91,66,0.00,40.00,16,6,24,0.00
2012-10-20,56,43,36,44,39,35,97,85,49,0.00,40.00,11,6,16,0.00
2012-10-21,69,52,36,52,44,36,97,79,46,0.00,40.00,21,11,29,0.00
2012-10-22,63,58,52,62,57,50,97,95,89,0.00,40.00,17,9,23,0.00
2012-10-23,70,64,60,66,62,59,96,93,81,0.00,40.00,20,9,25,0.00
2012-10-24,78,67,57,66,61,56,96,83,61,0.00,40.00,24,12,31,0.00
2012-10-25,75,60,42,63,55,35,97,85,63,0.00,40.00,28,20,47,0.00
2012-10-26,50,40,32,37,29,24,86,65,36,0.00,40.00,26,13,36,0.00
2012-10-27,45,36,27,30,26,22,94,70,41,0.00,40.00,19,9,24,0.00
2012-10-28,49,38,31,31,28,25,84,67,46,0.00,40.00,18,10,26,0.00
2012-10-29,51,39,29,32,26,19,91,64,29,0.00,40.00,21,12,29,0.00
2012-10-30,47,39,33,29,25,22,78,60,40,0.00,40.00,33,20,42,0.00
2012-10-31,50,37,28,30,24,17,88,61,33,0.00,40.00,21,15,31,0.00
2012-11-1,56,41,32,32,25,18,84,54,38,0.00,40.00,15,8,20,0.00
2012-11-2,47,37,28,32,28,24,96,72,43,0.00,40.00,11,7,16,0.00
2012-11-3,49,39,31,36,33,28,92,78,57,0.00,40.00,13,6,17,0.00
2012-11-4,49,37,27,33,29,25,98,76,45,0.00,40.00,10,4,14,0.00
2012-11-5,45,34,25,35,28,23,99,81,52,0.00,40.00,12,6,19,0.00
2012-11-6,40,34,24,39,33,23,99,96,86,0.00,40.00,14,6,17,0.00
2012-11-7,43,40,38,41,39,38,98,94,85,0.00,40.00,12,5,16,0.00
2012-11-8,49,40,34,38,34,30,97,81,54,0.00,40.00,14,7,19,0.00
2012-11-9,56,44,33,47,40,32,97,86,61,0.00,40.00,14,10,17,0.00
2012-11-10,66,57,48,55,50,46,97,79,64,0.00,40.00,30,16,46,0.00
2012-11-11,68,56,34,56,48,32,97,78,60,0.00,40.00,34,20,49,0.00
2012-11-12,34,30,24,33,21,17,94,69,55,0.00,40.00,26,19,34,0.00
2012-11-13,41,30,22,25,20,17,90,70,41,0.00,40.00,14,6,24,0.00
2012-11-14,45,33,26,30,26,-100,95,79,46,0.00,40.00,20,11,26,0.00
2012-11-15,49,35,27,31,28,25,95,78,39,0.00,40.00,11,7,14,0.00
2012-11-16,55,39,26,32,29,23,93,71,42,0.00,40.00,12,5,14,0.00
2012-11-17,54,38,27,34,30,25,94,76,42,0.00,40.00,15,8,20,0.00
2012-11-18,55,40,29,36,33,28,98,76,44,0.00,40.00,14,11,19,0.00
2012-11-19,57,45,35,43,38,33,94,78,47,0.00,40.00,14,9,21,0.00
2012-11-20,60,50,36,47,44,36,97,81,57,0.00,40.00,12,4,21,0.00
2012-11-21,55,42,32,47,40,31,98,92,63,0.00,40.00,11,6,17,0.00
2012-11-22,63,49,37,51,43,32,97,83,46,0.00,40.00,31,14,43,0.00
2012-11-23,39,30,25,34,21,15,84,69,57,0.00,40.00,34,22,45,0.00
2012-11-24,33,28,23,22,18,15,74,67,54,0.00,40.00,18,9,24,0.00
2012-11-25,45,34,25,26,23,21,84,65,40,0.00,40.00,15,9,20,0.00
2012-11-26,31,27,21,25,21,15,86,79,61,0.00,40.00,12,7,15,0.00
2012-11-27,32,24,13,16,12,8,84,61,42,0.00,40.00,11,6,16,0.00
2012-11-28,44,33,24,24,20,16,75,60,40,0.00,40.00,11,7,19,0.00
2012-11-29,51,37,23,35,29,21,96,75,47,0.00,40.00,16,9,19,0.00
2012-11-30,54,42,31,36,34,30,97,76,44,0.00,40.00,14,7,17,0.00
2012-12-1,58,46,31,52,43,30,98,88,74,0.00,40.00,19,10,27,0.00
2012-12-2,63,55,44,54,51,44,97,87,66,0.00,40.00,13,7,20,0.00
2012-12-3,69,58,45,61,54,44,97,89,70,0.00,40.00,23,13,37,0.00
2012-12-4,57,48,37,48,34,27,85,62,36,0.00,40.00,18,12,27,0.00
2012-12-5,42,32,24,29,22,18,95,69,42,0.00,40.00,16,10,21,0.00
2012-12-6,46,38,29,39,32,-100,95,81,64,0.00,40.00,19,12,26,0.00
2012-12-7,45,40,37,41,37,33,97,88,77,0.00,40.00,12,7,16,0.00
2012-12-8,40,35,33,36,33,32,97,93,73,0.00,40.00,16,11,21,0.00
2012-12-9,39,36,32,39,35,30,97,95,87,0.00,40.00,23,12,30,0.00
2012-12-10,32,28,26,31,27,24,97,94,88,0.00,40.00,26,11,33,0.00
2012-12-11,31,24,18,24,20,16,93,84,66,0.00,40.00,12,6,19,0.00
2012-12-12,44,32,22,28,24,20,91,74,44,0.00,40.00,17,10,24,0.00
2012-12-13,48,36,24,30,26,22,93,69,38,0.00,40.00,24,10,31,0.00
2012-12-14,47,36,26,36,31,25,96,81,57,0.00,40.00,15,8,18,0.00
2012-12-15,48,44,38,47,42,36,98,95,85,0.00,40.00,30,16,40,0.00
2012-12-16,48,40,36,45,38,33,96,91,87,0.00,40.00,18,11,26,0.00
2012-12-17,36,34,32,33,31,28,91,88,81,0.00,40.00,9,4,13,0.00
2012-12-18,41,35,30,38,32,26,93,88,83,0.00,40.00,30,12,37,0.00
2012-12-19,38,34,30,36,32,29,95,90,82,0.00,40.00,23,10,32,0.00
2012-12-20,46,37,29,46,36,23,97,95,82,0.00,40.00,43,26,60,0.00
2012-12-21,29,22,16,24,15,10,82,74,62,0.00,40.00,37,24,49,0.00
2012-12-22,30,20,11,22,15,8,94,80,63,0.00,40.00,17,8,19,0.00
2012-12-23,29,23,16,26,20,15,95,90,79,0.00,40.00,16,8,20,0.00
2012-12-24,29,27,25,26,24,20,93,89,85,0.00,40.00,14,10,17,0.00
2012-12-25,27,21,14,21,17,12,89,84,77,0.00,40.00,19,12,24,0.00
2012-12-26,30,26,22,24,22,19,90,82,67,0.00,40.00,23,16,34,0.00
2012-12-27,29,26,23,25,22,19,90,85,80,0.00,40.00,14,8,17,0.00
2012-12-28,30,29,27,29,27,24,97,93,89,0.00,40.00,15,7,17,0.00
2012-12-29,29,23,13,28,20,8,97,87,77,0.00,40.00,25,15,33,0.00
2012-12-30,31,21,9,27,16,6,90,81,62,0.00,40.00,14,8,22,0.00
2012-12-31,33,27,19,25,20,12,85,76,65,0.00,40.00,18,13,26,0.00
2013-1-1,22,14,7,12,6,2,84,70,45,0.00,40.00,18,10,21,0.00